createdAt,value
2022-08-02T00:01:42.280Z,22.28
2022-08-02T00:04:43.782Z,21.85
2022-08-02T00:07:45.296Z,22.06
2022-08-02T00:10:46.765Z,22.14
2022-08-02T00:13:48.458Z,22.22
2022-08-02T00:16:50.168Z,22.14
2022-08-02T00:19:51.583Z,22.04
2022-08-02T00:22:53.057Z,21.79
2022-08-02T00:25:55.957Z,21.69
2022-08-02T00:28:57.877Z,21.71
2022-08-02T00:31:59.625Z,21.65
2022-08-02T00:35:01.064Z,21.52
2022-08-02T00:38:03.973Z,21.51
2022-08-02T00:41:11.812Z,21.77
2022-08-02T00:44:13.270Z,21.80
2022-08-02T00:47:19.746Z,21.85
2022-08-02T00:50:21.436Z,21.61
2022-08-02T00:53:22.974Z,21.56
2022-08-02T00:56:24.688Z,21.41
2022-08-02T00:59:26.238Z,21.35
2022-08-02T01:02:27.739Z,21.32
2022-08-02T01:05:29.286Z,21.38
2022-08-02T01:08:31.942Z,21.42
2022-08-02T01:11:34.981Z,21.10
2022-08-02T01:14:37.496Z,20.76
2022-08-02T01:17:49.097Z,20.85
2022-08-02T01:21:12.708Z,21.35
2022-08-02T01:24:28.782Z,21.52
2022-08-02T01:28:01.247Z,21.22
2022-08-02T01:31:21.138Z,21.04
2022-08-02T01:34:42.675Z,20.87
2022-08-02T01:37:57.166Z,20.96
2022-08-02T01:41:02.199Z,20.83
2022-08-02T01:44:05.291Z,20.97
2022-08-02T01:47:15.290Z,21.08
2022-08-02T01:50:21.713Z,20.98
2022-08-02T01:53:27.033Z,20.88
2022-08-02T01:56:28.616Z,20.90
2022-08-02T01:59:32.121Z,20.75
2022-08-02T02:02:37.136Z,20.74
2022-08-02T02:05:41.572Z,20.82
2022-08-02T02:08:44.213Z,20.91
2022-08-02T02:12:13.196Z,20.76
2022-08-02T02:15:12.356Z,20.58
2022-08-02T02:18:27.787Z,20.74
2022-08-02T02:21:29.693Z,20.82
2022-08-02T02:24:33.760Z,20.62
2022-08-02T02:27:37.367Z,20.66
2022-08-02T02:30:42.857Z,20.77
2022-08-02T02:33:52.788Z,20.40
2022-08-02T02:36:56.593Z,20.52
2022-08-02T02:39:58.340Z,20.44
2022-08-02T02:43:01.583Z,20.52
2022-08-02T02:46:06.167Z,20.39
2022-08-02T02:49:11.149Z,20.17
2022-08-02T02:52:15.388Z,20.09
2022-08-02T02:55:18.022Z,20.18
2022-08-02T02:58:19.813Z,20.41
2022-08-02T03:01:55.160Z,20.49
2022-08-02T03:04:56.130Z,20.41
2022-08-02T03:07:59.130Z,20.49
2022-08-02T03:11:00.923Z,20.41
2022-08-02T03:14:04.208Z,20.47
2022-08-02T03:17:05.633Z,20.36
2022-08-02T03:20:10.608Z,20.32
2022-08-02T03:23:12.049Z,20.04
2022-08-02T03:26:13.827Z,19.95
2022-08-02T03:29:15.339Z,19.72
2022-08-02T03:32:16.801Z,19.88
2022-08-02T03:35:23.902Z,20.06
2022-08-02T03:38:29.219Z,19.85
2022-08-02T03:41:31.935Z,19.95
2022-08-02T03:44:33.884Z,20.20
2022-08-02T03:47:38.214Z,20.26
2022-08-02T03:50:41.192Z,19.87
2022-08-02T03:53:43.166Z,20.14
2022-08-02T03:56:45.765Z,20.27
2022-08-02T03:59:47.440Z,20.09
2022-08-02T04:02:49.721Z,20.16
2022-08-02T04:06:03.186Z,20.12
2022-08-02T04:09:06.185Z,20.23
2022-08-02T04:12:08.134Z,20.04
2022-08-02T04:15:12.432Z,19.95
2022-08-02T04:18:14.728Z,19.80
2022-08-02T04:21:19.468Z,19.89
2022-08-02T04:24:26.635Z,19.78
2022-08-02T04:27:50.464Z,20.02
2022-08-02T04:30:52.777Z,20.19
2022-08-02T04:33:54.948Z,20.07
2022-08-02T04:36:57.022Z,20.04
2022-08-02T04:39:58.702Z,20.06
2022-08-02T04:43:00.166Z,19.88
2022-08-02T04:46:02.882Z,19.81
2022-08-02T04:49:05.123Z,19.92
2022-08-02T04:52:06.774Z,19.75
2022-08-02T04:55:08.636Z,19.81
2022-08-02T04:58:38.362Z,19.63
2022-08-02T05:01:32.368Z,19.59
2022-08-02T05:04:33.880Z,19.60
2022-08-02T05:07:36.911Z,19.81
2022-08-02T05:10:38.539Z,19.96
2022-08-02T05:13:58.487Z,20.13
2022-08-02T05:17:01.296Z,20.19
2022-08-02T05:20:03.672Z,20.19
2022-08-02T05:23:05.051Z,19.94
2022-08-02T05:26:06.529Z,20.04
2022-08-02T05:29:08.021Z,20.27
2022-08-02T05:32:09.801Z,20.22
2022-08-02T05:35:11.906Z,20.38
2022-08-02T05:38:13.472Z,20.38
2022-08-02T05:41:14.975Z,20.31
2022-08-02T05:44:16.536Z,20.29
2022-08-02T05:47:18.054Z,20.30
2022-08-02T05:50:19.890Z,20.12
2022-08-02T05:53:43.132Z,20.07
2022-08-02T05:57:04.099Z,20.03
2022-08-02T06:00:13.672Z,20.12
2022-08-02T06:03:39.042Z,20.21
2022-08-02T06:06:44.013Z,20.44
2022-08-02T06:09:47.762Z,20.48
2022-08-02T06:12:50.868Z,20.47
2022-08-02T06:15:53.906Z,20.52
2022-08-02T06:18:57.201Z,20.70
2022-08-02T06:22:31.434Z,20.92
2022-08-02T06:25:48.513Z,20.97
2022-08-02T06:28:54.890Z,21.25
2022-08-02T06:31:57.432Z,20.97
2022-08-02T06:34:58.908Z,21.26
2022-08-02T06:38:02.147Z,21.36
2022-08-02T06:41:09.130Z,21.39
2022-08-02T06:44:45.559Z,21.48
2022-08-02T06:47:35.101Z,21.77
2022-08-02T06:50:41.960Z,21.99
2022-08-02T06:53:43.735Z,21.87
2022-08-02T06:56:45.977Z,21.89
2022-08-02T06:59:47.506Z,22.05
2022-08-02T07:02:49.759Z,21.93
2022-08-02T07:05:52.186Z,22.14
2022-08-02T07:09:18.202Z,22.06
2022-08-02T07:12:15.086Z,22.16
2022-08-02T07:15:16.983Z,22.43
2022-08-02T07:18:18.849Z,22.17
2022-08-02T07:21:56.568Z,22.67
2022-08-02T07:24:41.994Z,22.67
2022-08-02T07:27:43.594Z,22.66
2022-08-02T07:30:45.145Z,22.90
2022-08-02T07:33:47.179Z,23.19
2022-08-02T07:36:49.023Z,23.17
2022-08-02T07:39:50.957Z,23.38
2022-08-02T07:42:57.909Z,23.46
2022-08-02T07:46:01.272Z,23.42
2022-08-02T07:49:02.909Z,23.65
2022-08-02T07:52:04.765Z,23.60
2022-08-02T07:55:06.614Z,24.00
2022-08-02T07:58:13.055Z,24.06
2022-08-02T08:01:15.361Z,24.17
2022-08-02T08:04:17.496Z,24.42
2022-08-02T08:07:19.040Z,24.59
2022-08-02T08:10:20.608Z,24.66
2022-08-02T08:13:22.047Z,24.86
2022-08-02T08:16:26.105Z,25.00
2022-08-02T08:19:50.063Z,25.40
2022-08-02T08:22:50.046Z,25.35
2022-08-02T08:25:51.721Z,25.32
2022-08-02T08:28:53.155Z,25.50
2022-08-02T08:31:54.634Z,25.69
2022-08-02T08:34:58.646Z,25.71
2022-08-02T08:38:04.149Z,25.76
2022-08-02T08:41:08.570Z,26.03
2022-08-02T08:44:10.090Z,25.92
2022-08-02T08:47:11.845Z,26.28
2022-08-02T08:50:25.382Z,26.34
2022-08-02T08:53:36.852Z,26.37
2022-08-02T08:56:40.531Z,26.27
2022-08-02T08:59:42.000Z,26.18
2022-08-02T09:02:43.990Z,26.44
2022-08-02T09:05:47.020Z,26.83
2022-08-02T09:08:48.917Z,26.68
2022-08-02T09:11:50.758Z,26.96
2022-08-02T09:14:52.675Z,27.05
2022-08-02T09:17:54.310Z,27.00
2022-08-02T09:20:58.812Z,26.88
2022-08-02T09:24:00.879Z,27.17
2022-08-02T09:27:13.879Z,27.14
2022-08-02T09:30:16.806Z,27.11
2022-08-02T09:33:28.617Z,26.87
2022-08-02T09:36:47.646Z,27.01
2022-08-02T09:39:49.219Z,27.24
2022-08-02T09:42:59.399Z,26.95
2022-08-02T09:46:13.277Z,27.23
2022-08-02T09:49:16.859Z,27.12
2022-08-02T09:52:37.335Z,27.42
2022-08-02T09:55:55.998Z,27.93
2022-08-02T09:58:57.917Z,28.18
2022-08-02T10:02:17.420Z,28.23
2022-08-02T10:05:21.301Z,27.67
2022-08-02T10:08:25.848Z,27.69
2022-08-02T10:11:28.744Z,27.55
2022-08-02T10:14:30.476Z,27.89
2022-08-02T10:17:32.443Z,27.77
2022-08-02T10:20:43.408Z,27.86
2022-08-02T10:23:47.586Z,28.38
2022-08-02T10:26:49.881Z,27.92
2022-08-02T10:29:56.026Z,28.13
2022-08-02T10:33:00.994Z,28.45
2022-08-02T10:36:07.482Z,28.28
2022-08-02T10:39:10.167Z,28.49
2022-08-02T10:42:13.695Z,28.63
2022-08-02T10:45:18.444Z,28.25
2022-08-02T10:48:19.886Z,28.33
2022-08-02T10:51:24.522Z,28.54
2022-08-02T10:54:44.080Z,28.74
2022-08-02T10:57:47.063Z,29.04
2022-08-02T11:00:51.632Z,28.95
2022-08-02T11:03:59.682Z,28.80
2022-08-02T11:07:14.319Z,29.13
2022-08-02T11:10:33.982Z,29.04
2022-08-02T11:14:07.024Z,29.25
2022-08-02T11:17:13.507Z,29.19
2022-08-02T11:20:16.868Z,29.66
2022-08-02T11:23:45.407Z,29.17
2022-08-02T11:26:47.366Z,28.74
2022-08-02T11:29:49.595Z,28.90
2022-08-02T11:32:56.043Z,28.80
2022-08-02T11:36:02.592Z,29.42
2022-08-02T11:39:12.452Z,29.65
2022-08-02T11:42:17.475Z,30.18
2022-08-02T11:45:29.426Z,30.20
2022-08-02T11:48:39.641Z,30.66
2022-08-02T11:52:04.983Z,29.83
2022-08-02T11:55:08.210Z,30.17
2022-08-02T11:58:11.583Z,30.51
2022-08-02T12:01:13.077Z,30.63
2022-08-02T12:04:22.736Z,30.48
2022-08-02T12:07:35.283Z,29.72
2022-08-02T12:10:47.687Z,30.43
2022-08-02T12:13:56.489Z,30.95
2022-08-02T12:17:17.478Z,30.55
2022-08-02T12:20:20.042Z,30.62
2022-08-02T12:23:21.573Z,30.06
2022-08-02T12:26:23.931Z,30.42
2022-08-02T12:29:56.420Z,30.35
2022-08-02T12:33:13.150Z,30.16
2022-08-02T12:36:18.577Z,30.57
2022-08-02T12:39:20.034Z,30.80
2022-08-02T12:42:21.651Z,31.35
2022-08-02T12:45:25.049Z,31.31
2022-08-02T12:48:40.359Z,31.78
2022-08-02T12:51:51.864Z,30.72
2022-08-02T12:54:58.416Z,30.68
2022-08-02T12:58:05.383Z,30.67
2022-08-02T13:01:06.848Z,31.00
2022-08-02T13:04:13.762Z,31.64
2022-08-02T13:07:18.352Z,31.17
2022-08-02T13:10:21.662Z,31.29
2022-08-02T13:13:23.117Z,31.08
2022-08-02T13:16:31.139Z,30.60
2022-08-02T13:19:33.128Z,31.18
2022-08-02T13:22:35.072Z,31.18
2022-08-02T13:25:36.490Z,31.89
2022-08-02T13:28:41.948Z,32.49
2022-08-02T13:31:43.607Z,32.06
2022-08-02T13:34:45.351Z,32.25
2022-08-02T13:37:48.095Z,32.31
2022-08-02T13:41:08.227Z,31.38
2022-08-02T13:44:10.919Z,32.34
2022-08-02T13:47:12.670Z,32.51
2022-08-02T13:50:14.170Z,32.47
2022-08-02T13:53:15.751Z,32.19
2022-08-02T13:56:17.249Z,31.70
2022-08-02T13:59:57.798Z,32.03
2022-08-02T14:02:40.695Z,32.39
2022-08-02T14:05:48.033Z,32.51
2022-08-02T14:08:50.155Z,32.98
2022-08-02T14:11:52.041Z,32.39
2022-08-02T14:14:53.468Z,32.24
2022-08-02T14:17:54.910Z,31.91
2022-08-02T14:20:56.379Z,32.22
2022-08-02T14:23:58.055Z,32.38
2022-08-02T14:26:59.462Z,32.08
2022-08-02T14:30:01.233Z,32.80
2022-08-02T14:33:03.975Z,32.90
2022-08-02T14:36:06.171Z,32.62
2022-08-02T14:39:07.695Z,31.99
2022-08-02T14:42:09.646Z,32.94
2022-08-02T14:45:11.134Z,33.29
2022-08-02T14:48:12.682Z,32.13
2022-08-02T14:51:14.398Z,32.71
2022-08-02T14:54:15.858Z,33.25
2022-08-02T14:57:19.696Z,33.42
2022-08-02T15:00:21.174Z,33.83
2022-08-02T15:03:22.635Z,33.51
2022-08-02T15:06:24.241Z,33.35
2022-08-02T15:09:26.783Z,33.20
2022-08-02T15:12:28.202Z,33.04
2022-08-02T15:15:29.701Z,33.44
2022-08-02T15:18:31.495Z,33.28
2022-08-02T15:21:41.917Z,33.22
2022-08-02T15:24:53.925Z,32.65
2022-08-02T15:27:55.393Z,32.52
2022-08-02T15:30:57.633Z,32.68
2022-08-02T15:33:59.075Z,32.47
2022-08-02T15:37:00.662Z,32.53
2022-08-02T15:40:02.329Z,33.05
2022-08-02T15:43:03.871Z,33.03
2022-08-02T15:46:06.563Z,32.45
2022-08-02T15:49:08.267Z,32.64
2022-08-02T15:52:10.203Z,31.92
2022-08-02T15:55:12.091Z,32.23
2022-08-02T15:58:17.139Z,31.84
2022-08-02T16:01:19.691Z,31.25
2022-08-02T16:04:21.334Z,31.50
2022-08-02T16:07:22.751Z,31.55
2022-08-02T16:10:25.151Z,32.09
2022-08-02T16:13:53.678Z,31.99
2022-08-02T16:16:57.541Z,31.93
2022-08-02T16:19:59.264Z,31.88
2022-08-02T16:23:00.671Z,31.74
2022-08-02T16:26:06.035Z,31.83
2022-08-02T16:29:07.880Z,31.84
2022-08-02T16:32:12.318Z,31.37
2022-08-02T16:35:14.071Z,31.33
2022-08-02T16:38:16.105Z,31.29
2022-08-02T16:41:17.630Z,31.29
2022-08-02T16:44:29.006Z,31.33
2022-08-02T16:47:42.649Z,31.38
2022-08-02T16:50:46.396Z,31.39
2022-08-02T16:53:59.812Z,31.95
2022-08-02T16:57:03.246Z,32.24
2022-08-02T17:00:05.674Z,32.70
2022-08-02T17:03:13.320Z,32.00
2022-08-02T17:06:16.104Z,32.17
2022-08-02T17:10:01.820Z,33.13
2022-08-02T17:12:40.155Z,32.84
2022-08-02T17:16:17.321Z,31.84
2022-08-02T17:19:03.895Z,31.97
2022-08-02T17:22:05.375Z,31.90
2022-08-02T17:28:31.436Z,31.80
2022-08-02T17:31:37.345Z,31.29
2022-08-02T17:34:56.444Z,31.33
2022-08-02T17:38:01.276Z,31.57
2022-08-02T17:41:04.091Z,31.30
2022-08-02T17:44:06.661Z,31.22
2022-08-02T17:47:10.200Z,31.33
2022-08-02T17:50:13.354Z,31.07
2022-08-02T17:53:14.874Z,30.77
2022-08-02T17:56:16.664Z,30.72
2022-08-02T17:59:30.654Z,30.66
2022-08-02T18:02:32.396Z,30.62
2022-08-02T18:05:40.084Z,30.50
2022-08-02T18:08:51.214Z,30.29
2022-08-02T18:11:55.069Z,30.43
2022-08-02T18:14:56.499Z,30.29
2022-08-02T18:17:57.979Z,30.18
2022-08-02T18:21:08.166Z,29.74
2022-08-02T18:24:19.188Z,29.59
2022-08-02T18:27:25.510Z,29.45
2022-08-02T18:30:28.020Z,29.22
2022-08-02T18:33:57.244Z,29.17
2022-08-02T18:36:51.586Z,29.16
2022-08-02T18:39:53.036Z,29.01
2022-08-02T18:42:54.939Z,28.86
2022-08-02T18:46:05.599Z,28.94
2022-08-02T18:49:16.690Z,28.81
2022-08-02T18:52:31.399Z,28.67
2022-08-02T18:55:59.722Z,28.49
2022-08-02T18:58:55.827Z,28.31
2022-08-02T19:01:57.669Z,28.19
2022-08-02T19:05:00.437Z,28.02
2022-08-02T19:08:01.923Z,27.91
2022-08-02T19:11:04.585Z,27.95
2022-08-02T19:14:05.987Z,27.94
2022-08-02T19:17:16.118Z,27.83
2022-08-02T19:20:30.029Z,27.65
2022-08-02T19:23:31.470Z,27.48
2022-08-02T19:26:32.849Z,27.42
2022-08-02T19:29:43.003Z,27.49
2022-08-02T19:33:00.241Z,27.34
2022-08-02T19:36:03.983Z,27.12
2022-08-02T19:39:06.082Z,27.19
2022-08-02T19:42:07.950Z,27.06
2022-08-02T19:45:13.095Z,26.95
2022-08-02T19:48:14.865Z,26.98
2022-08-02T19:51:55.090Z,26.84
2022-08-02T19:54:55.721Z,26.84
2022-08-02T19:57:58.175Z,26.81
2022-08-02T20:00:59.645Z,26.51
2022-08-02T20:04:03.914Z,26.51
2022-08-02T20:07:05.410Z,26.37
2022-08-02T20:10:10.927Z,26.39
2022-08-02T20:13:13.019Z,26.25
2022-08-02T20:16:27.490Z,25.91
2022-08-02T20:19:29.895Z,26.04
2022-08-02T20:22:33.465Z,25.92
2022-08-02T20:25:34.902Z,25.86
2022-08-02T20:28:36.727Z,25.54
2022-08-02T20:31:38.522Z,25.54
2022-08-02T20:34:40.080Z,25.57
2022-08-02T20:38:00.971Z,25.44
2022-08-02T20:41:03.901Z,25.16
2022-08-02T20:44:05.475Z,25.14
2022-08-02T20:47:17.753Z,24.89
2022-08-02T20:50:49.160Z,25.15
2022-08-02T20:53:54.767Z,25.03
2022-08-02T20:56:56.631Z,24.71
2022-08-02T21:00:03.616Z,24.86
2022-08-02T21:03:06.390Z,24.82
2022-08-02T21:06:09.805Z,24.58
2022-08-02T21:09:11.476Z,24.60
2022-08-02T21:12:14.426Z,24.60
2022-08-02T21:15:15.901Z,24.31
2022-08-02T21:21:38.858Z,24.45
2022-08-02T21:24:40.342Z,24.51
2022-08-02T21:27:53.108Z,24.47
2022-08-02T21:30:56.769Z,24.31
2022-08-02T21:33:59.380Z,24.07
2022-08-02T21:37:09.892Z,24.13
2022-08-02T21:40:13.023Z,24.24
2022-08-02T21:43:14.524Z,24.19
2022-08-02T21:46:16.912Z,24.16
2022-08-02T21:49:20.120Z,23.94
2022-08-02T21:52:25.953Z,24.11
2022-08-02T21:58:48.999Z,23.89
2022-08-02T22:01:53.119Z,23.77
2022-08-02T22:04:55.230Z,23.83
2022-08-02T22:07:58.188Z,23.65
2022-08-02T22:11:03.151Z,23.76
2022-08-02T22:14:04.951Z,23.47
2022-08-02T22:20:41.323Z,23.64
2022-08-02T22:23:50.441Z,23.78
2022-08-02T22:26:52.657Z,23.66
2022-08-02T22:29:54.112Z,23.60
2022-08-02T22:33:15.201Z,23.52
2022-08-02T22:36:17.242Z,23.63
2022-08-02T22:39:19.744Z,23.40
2022-08-02T22:42:21.432Z,23.45
2022-08-02T22:45:23.052Z,23.58
2022-08-02T22:48:24.880Z,23.36
2022-08-02T22:51:27.635Z,23.42
2022-08-02T22:54:30.889Z,23.20
2022-08-02T22:57:33.496Z,23.13
2022-08-02T22:58:51.223Z,31.77
2022-08-02T22:59:02.438Z,24.30
2022-08-02T22:59:03.803Z,24.07
2022-08-02T23:00:54.952Z,23.16
2022-08-02T23:03:56.381Z,23.12
2022-08-02T23:06:58.885Z,23.00
2022-08-02T23:10:00.686Z,22.97
2022-08-02T23:13:02.128Z,23.01
2022-08-02T23:16:22.301Z,22.79
2022-08-02T23:19:42.351Z,22.75
2022-08-02T23:22:43.795Z,22.92
2022-08-02T23:25:46.280Z,22.90
2022-08-02T23:28:47.867Z,22.82
2022-08-02T23:31:49.603Z,22.39
2022-08-02T23:34:52.069Z,22.41
2022-08-02T23:38:00.488Z,22.51
2022-08-02T23:41:04.569Z,22.42
2022-08-02T23:44:15.079Z,22.46
2022-08-02T23:47:17.049Z,22.55
2022-08-02T23:50:18.646Z,22.62
2022-08-02T23:53:20.085Z,22.56
2022-08-02T23:56:21.510Z,22.54
2022-08-02T23:59:23.077Z,22.35
